createdAt,value
2022-12-18T08:00:47.735Z,40.43
2022-12-18T08:03:17.418Z,39.35
2022-12-18T08:05:45.754Z,40.24
2022-12-18T08:08:14.101Z,41.43
2022-12-18T08:10:42.602Z,43.49
2022-12-18T08:13:10.844Z,44.23
2022-12-18T08:15:39.124Z,45.71
2022-12-18T08:18:12.675Z,48.37
2022-12-18T08:20:42.748Z,48.28
2022-12-18T08:23:11.252Z,48.99
2022-12-18T08:25:39.468Z,50.34
2022-12-18T08:28:07.990Z,51.46
2022-12-18T08:30:37.167Z,52.79
2022-12-18T08:33:06.170Z,53.91
2022-12-18T08:35:44.047Z,55.25
2022-12-18T08:38:14.000Z,55.79
2022-12-18T08:40:42.398Z,56.31
2022-12-18T08:43:34.667Z,56.77
2022-12-18T08:46:03.246Z,55.87
2022-12-18T08:48:31.624Z,57.84
2022-12-18T08:51:00.838Z,58.11
2022-12-18T08:53:34.156Z,59.06
2022-12-18T08:56:04.744Z,59.31
2022-12-18T08:58:33.624Z,59.18
2022-12-18T09:01:04.662Z,58.93
2022-12-18T09:03:34.629Z,59.50
2022-12-18T09:06:03.359Z,60.37
2022-12-18T09:08:31.748Z,59.86
2022-12-18T09:11:03.004Z,59.33
2022-12-18T09:13:31.383Z,59.64
2022-12-18T09:15:59.949Z,59.64
2022-12-18T09:18:28.219Z,59.62
2022-12-18T09:20:56.772Z,59.31
2022-12-18T09:23:25.084Z,59.27
2022-12-18T09:26:00.665Z,59.71
2022-12-18T09:28:29.008Z,59.77
2022-12-18T09:30:57.557Z,59.63
2022-12-18T09:33:26.136Z,59.16
2022-12-18T09:35:54.496Z,59.50
2022-12-18T09:38:24.232Z,58.55
2022-12-18T09:40:59.905Z,58.36
2022-12-18T09:43:46.362Z,59.20
2022-12-18T09:46:26.669Z,58.89
2022-12-18T09:49:00.220Z,58.91
2022-12-18T09:51:37.334Z,57.58
2022-12-18T09:54:11.769Z,57.90
2022-12-18T09:56:43.680Z,57.50
2022-12-18T09:59:37.097Z,56.90
2022-12-18T10:02:35.104Z,56.12
2022-12-18T10:05:26.583Z,55.49
2022-12-18T10:08:04.327Z,55.01
2022-12-18T10:10:55.810Z,54.74
2022-12-18T10:13:36.332Z,55.08
2022-12-18T10:16:17.332Z,54.34
2022-12-18T10:19:04.808Z,53.23
2022-12-18T10:22:03.926Z,52.70
2022-12-18T10:24:37.083Z,53.58
2022-12-18T10:27:17.525Z,53.26
2022-12-18T10:29:47.259Z,53.28
2022-12-18T10:32:30.639Z,52.24
2022-12-18T10:35:00.665Z,52.58
2022-12-18T10:37:30.959Z,52.58
2022-12-18T10:40:18.448Z,51.77
2022-12-18T10:43:15.602Z,50.96
2022-12-18T10:46:00.297Z,51.56
2022-12-18T10:48:31.104Z,52.52
2022-12-18T10:51:10.949Z,52.28
2022-12-18T10:53:44.122Z,50.84
2022-12-18T10:56:13.500Z,50.62
2022-12-18T10:58:42.171Z,50.30
2022-12-18T11:01:18.268Z,50.05
2022-12-18T11:04:01.631Z,51.61
2022-12-18T11:06:30.774Z,49.62
2022-12-18T11:09:06.690Z,49.12
2022-12-18T11:11:39.497Z,51.83
2022-12-18T11:14:19.358Z,49.57
2022-12-18T11:17:23.906Z,48.84
2022-12-18T11:19:41.080Z,48.26
2022-12-18T11:22:27.655Z,48.24
2022-12-18T11:27:57.400Z,47.45
2022-12-18T11:30:34.459Z,46.48
2022-12-18T11:33:13.199Z,45.96
2022-12-18T11:36:04.762Z,45.64
2022-12-18T11:38:43.828Z,45.92
2022-12-18T11:41:55.879Z,45.46
2022-12-18T11:44:29.837Z,46.55
2022-12-18T11:47:04.744Z,46.69
2022-12-18T11:49:37.384Z,45.03
2022-12-18T11:52:05.521Z,45.61
2022-12-18T11:54:33.789Z,46.29
2022-12-18T11:57:04.934Z,45.33
2022-12-18T11:59:49.268Z,44.71
2022-12-18T12:02:36.200Z,45.88
2022-12-18T12:05:10.703Z,46.50
2022-12-18T12:08:17.488Z,46.33
2022-12-18T12:11:01.949Z,45.56
2022-12-18T12:13:51.961Z,45.83
2022-12-18T12:16:29.890Z,44.57
2022-12-18T12:19:17.400Z,44.54
2022-12-18T12:21:58.403Z,45.41
2022-12-18T12:24:40.720Z,47.17
2022-12-18T12:27:36.849Z,47.52
2022-12-18T12:30:15.657Z,45.96
2022-12-18T12:32:53.276Z,46.43
2022-12-18T12:35:37.420Z,44.81
2022-12-18T12:38:14.092Z,43.85
2022-12-18T12:40:55.281Z,42.04
2022-12-18T12:43:50.223Z,41.40
2022-12-18T12:46:22.865Z,40.32
2022-12-18T12:48:56.749Z,37.09
2022-12-18T12:51:32.168Z,39.80
2022-12-18T12:54:02.779Z,38.41
2022-12-18T12:56:51.501Z,38.41
2022-12-18T12:59:22.597Z,40.07
2022-12-18T13:02:00.801Z,40.01
2022-12-18T13:04:43.636Z,41.20
2022-12-18T13:07:29.903Z,41.41
2022-12-18T13:10:39.119Z,41.68
2022-12-18T13:13:47.566Z,43.66
2022-12-18T13:16:09.278Z,44.16
2022-12-18T13:18:37.980Z,44.80
2022-12-18T13:21:22.945Z,45.26
2022-12-18T13:23:52.266Z,45.36
2022-12-18T13:26:28.134Z,46.56
2022-12-18T13:28:59.371Z,46.91
2022-12-18T13:31:43.532Z,47.88
2022-12-18T13:34:28.294Z,48.15
2022-12-18T13:37:32.669Z,48.63
2022-12-18T13:40:01.455Z,49.15
2022-12-18T13:42:58.179Z,50.26
2022-12-18T13:45:39.907Z,50.54
2022-12-18T13:48:19.274Z,50.89
2022-12-18T13:50:56.204Z,51.43
2022-12-18T13:53:53.008Z,51.81
2022-12-18T13:56:27.753Z,51.97
2022-12-18T13:59:14.067Z,52.50
2022-12-18T14:01:45.156Z,52.85
2022-12-18T14:04:20.819Z,53.75
2022-12-18T14:06:52.551Z,53.47
2022-12-18T14:09:37.355Z,54.18
2022-12-18T14:12:31.828Z,54.14
2022-12-18T14:15:02.943Z,54.32
2022-12-18T14:17:33.362Z,54.75
2022-12-18T14:20:03.845Z,55.38
2022-12-18T14:22:32.250Z,55.72
2022-12-18T14:25:18.151Z,55.62
2022-12-18T14:28:03.389Z,55.77
2022-12-18T14:30:44.377Z,56.59
2022-12-18T14:33:15.057Z,56.64
2022-12-18T14:35:54.770Z,56.70
2022-12-18T14:38:28.153Z,57.06
2022-12-18T14:41:06.092Z,56.96
2022-12-18T14:43:37.566Z,57.02
2022-12-18T14:46:26.964Z,57.36
2022-12-18T14:48:57.479Z,57.03
2022-12-18T14:51:28.681Z,57.58
2022-12-18T14:54:01.507Z,57.91
2022-12-18T14:56:44.217Z,57.80
2022-12-18T14:59:25.933Z,57.98
2022-12-18T15:02:21.459Z,58.39
2022-12-18T15:05:13.367Z,58.30
2022-12-18T15:07:44.342Z,58.43
2022-12-18T15:10:22.310Z,58.65
2022-12-18T15:12:57.665Z,58.44
2022-12-18T15:15:37.115Z,58.73
2022-12-18T15:18:14.118Z,58.68
2022-12-18T15:21:09.867Z,59.06
2022-12-18T15:23:44.872Z,59.10
2022-12-18T15:26:16.695Z,59.25
2022-12-18T15:28:51.363Z,59.45
2022-12-18T15:31:25.750Z,59.33
2022-12-18T15:33:54.190Z,60.05
2022-12-18T15:36:26.321Z,60.53
2022-12-18T15:39:05.358Z,59.96
2022-12-18T15:41:37.741Z,59.76
2022-12-18T15:44:25.793Z,59.85
2022-12-18T15:46:54.104Z,59.91
2022-12-18T15:49:22.396Z,59.89
2022-12-18T15:51:55.065Z,59.94
2022-12-18T15:54:43.845Z,60.39
2022-12-18T15:57:24.751Z,60.10
2022-12-18T15:59:57.516Z,60.23
2022-12-18T16:02:27.178Z,60.10
2022-12-18T16:04:55.888Z,60.36
2022-12-18T16:07:25.006Z,60.26
2022-12-18T16:09:54.327Z,60.24
2022-12-18T16:12:26.652Z,60.56
2022-12-18T16:14:55.008Z,60.43
2022-12-18T16:17:23.495Z,60.42
2022-12-18T16:19:51.826Z,60.54
2022-12-18T16:22:26.673Z,60.67
2022-12-18T16:24:56.849Z,60.62
2022-12-18T16:27:25.986Z,61.16
2022-12-18T16:29:54.511Z,60.96
2022-12-18T16:32:23.672Z,61.00
2022-12-18T16:34:53.025Z,61.12
2022-12-18T16:37:21.308Z,60.88
2022-12-18T16:39:49.684Z,60.98
2022-12-18T16:42:20.705Z,61.21
2022-12-18T16:44:50.347Z,61.43
2022-12-18T16:47:19.889Z,61.59
2022-12-18T16:49:51.869Z,61.18
2022-12-18T16:52:20.796Z,61.13
2022-12-18T16:54:49.184Z,61.26
2022-12-18T16:57:21.073Z,61.32
2022-12-18T16:59:52.164Z,61.53
2022-12-18T17:02:24.433Z,61.68
2022-12-18T17:04:57.562Z,61.68
2022-12-18T17:07:26.899Z,61.80
2022-12-18T17:09:55.787Z,62.12
2022-12-18T17:12:24.425Z,62.48
2022-12-18T17:14:52.774Z,65.18
2022-12-18T17:17:22.837Z,64.97
2022-12-18T17:19:52.782Z,61.81
2022-12-18T17:22:23.500Z,62.06
2022-12-18T17:24:52.033Z,57.47
2022-12-18T17:27:20.530Z,55.51
2022-12-18T17:29:49.377Z,55.36
2022-12-18T17:32:18.367Z,55.87
2022-12-18T17:34:46.890Z,56.27
2022-12-18T17:37:15.817Z,56.87
2022-12-18T17:39:44.386Z,57.63
2022-12-18T17:42:15.557Z,57.74
2022-12-18T17:44:45.211Z,58.76
2022-12-18T17:47:14.051Z,58.98
2022-12-18T17:49:42.413Z,59.39
2022-12-18T17:52:11.048Z,59.85
2022-12-18T17:54:42.175Z,59.80
2022-12-18T17:57:11.225Z,60.31
2022-12-18T17:59:39.843Z,60.46
2022-12-18T18:02:11.890Z,60.79
2022-12-18T18:04:40.483Z,61.31
2022-12-18T18:07:08.865Z,60.48
2022-12-18T18:09:37.166Z,61.11
2022-12-18T18:12:38.198Z,61.45
2022-12-18T18:15:07.250Z,61.57
2022-12-18T18:17:36.603Z,62.02
2022-12-18T18:20:06.312Z,63.11
2022-12-18T18:22:34.820Z,65.69
2022-12-18T18:25:03.883Z,62.26
